sensor_id;sensor_type;location;lat;lon;timestamp;temperature;humidity
24436;DHT22;12616;52.470;13.436;2023-05-10T00:06:22;13.10;99.90
24436;DHT22;12616;52.470;13.436;2023-05-10T00:08:48;13.10;99.90
24436;DHT22;12616;52.470;13.436;2023-05-10T00:11:15;13.00;99.90
24436;DHT22;12616;52.470;13.436;2023-05-10T00:13:42;12.90;99.90
24436;DHT22;12616;52.470;13.436;2023-05-10T00:16:09;13.00;99.90
24436;DHT22;12616;52.470;13.436;2023-05-10T00:18:37;12.90;99.90
24436;DHT22;12616;52.470;13.436;2023-05-10T00:21:04;12.80;99.90
24436;DHT22;12616;52.470;13.436;2023-05-10T00:23:32;12.80;99.90
24436;DHT22;12616;52.470;13.436;2023-05-10T00:25:59;12.80;99.90
24436;DHT22;12616;52.470;13.436;2023-05-10T00:28:27;12.90;99.90
24436;DHT22;12616;52.470;13.436;2023-05-10T00:30:54;12.80;99.90
24436;DHT22;12616;52.470;13.436;2023-05-10T00:33:22;12.70;99.90
24436;DHT22;12616;52.470;13.436;2023-05-10T00:35:48;12.70;99.90
24436;DHT22;12616;52.470;13.436;2023-05-10T00:38:15;12.70;99.90
24436;DHT22;12616;52.470;13.436;2023-05-10T00:40:44;12.90;1.00
24436;DHT22;12616;52.470;13.436;2023-05-10T00:43:11;12.70;99.90
24436;DHT22;12616;52.470;13.436;2023-05-10T00:45:40;12.80;99.90
24436;DHT22;12616;52.470;13.436;2023-05-10T00:48:10;12.60;99.90
24436;DHT22;12616;52.470;13.436;2023-05-10T00:50:37;12.60;99.90
24436;DHT22;12616;52.470;13.436;2023-05-10T00:53:08;12.60;99.90
24436;DHT22;12616;52.470;13.436;2023-05-10T00:55:36;12.50;99.90
24436;DHT22;12616;52.470;13.436;2023-05-10T00:58:04;12.50;99.90
24436;DHT22;12616;52.470;13.436;2023-05-10T01:00:33;12.60;99.90
24436;DHT22;12616;52.470;13.436;2023-05-10T01:03:00;12.70;99.90
24436;DHT22;12616;52.470;13.436;2023-05-10T01:05:27;12.40;99.90
24436;DHT22;12616;52.470;13.436;2023-05-10T01:07:54;12.40;99.90
24436;DHT22;12616;52.470;13.436;2023-05-10T01:10:21;12.30;1.00
24436;DHT22;12616;52.470;13.436;2023-05-10T01:12:48;12.40;99.90
24436;DHT22;12616;52.470;13.436;2023-05-10T01:15:23;12.40;99.90
24436;DHT22;12616;52.470;13.436;2023-05-10T01:17:51;12.20;1.00
24436;DHT22;12616;52.470;13.436;2023-05-10T01:20:19;12.30;99.90
24436;DHT22;12616;52.470;13.436;2023-05-10T01:23:05;12.30;99.90
24436;DHT22;12616;52.470;13.436;2023-05-10T01:25:52;12.20;99.90
24436;DHT22;12616;52.470;13.436;2023-05-10T01:28:39;12.10;1.00
24436;DHT22;12616;52.470;13.436;2023-05-10T01:31:33;12.20;99.90
24436;DHT22;12616;52.470;13.436;2023-05-10T01:34:08;12.10;99.90
24436;DHT22;12616;52.470;13.436;2023-05-10T01:36:43;12.10;1.00
24436;DHT22;12616;52.470;13.436;2023-05-10T01:39:20;12.10;99.90
24436;DHT22;12616;52.470;13.436;2023-05-10T01:41:56;12.00;1.00
24436;DHT22;12616;52.470;13.436;2023-05-10T01:44:39;12.00;99.90
24436;DHT22;12616;52.470;13.436;2023-05-10T01:47:11;12.00;99.90
24436;DHT22;12616;52.470;13.436;2023-05-10T01:49:43;11.90;99.90
24436;DHT22;12616;52.470;13.436;2023-05-10T01:52:13;11.90;99.90
24436;DHT22;12616;52.470;13.436;2023-05-10T01:54:49;11.90;99.90
24436;DHT22;12616;52.470;13.436;2023-05-10T01:57:16;11.80;99.90
24436;DHT22;12616;52.470;13.436;2023-05-10T01:59:49;11.80;99.90
24436;DHT22;12616;52.470;13.436;2023-05-10T02:02:17;11.80;99.90
24436;DHT22;12616;52.470;13.436;2023-05-10T02:04:48;11.70;99.90
24436;DHT22;12616;52.470;13.436;2023-05-10T02:07:16;11.70;99.90
24436;DHT22;12616;52.470;13.436;2023-05-10T02:09:45;11.70;99.90
24436;DHT22;12616;52.470;13.436;2023-05-10T02:12:14;11.50;1.00
24436;DHT22;12616;52.470;13.436;2023-05-10T02:14:42;11.70;99.90
24436;DHT22;12616;52.470;13.436;2023-05-10T02:17:10;11.70;99.90
24436;DHT22;12616;52.470;13.436;2023-05-10T02:19:40;11.70;99.90
24436;DHT22;12616;52.470;13.436;2023-05-10T02:22:09;11.60;99.90
24436;DHT22;12616;52.470;13.436;2023-05-10T02:24:36;11.30;1.00
24436;DHT22;12616;52.470;13.436;2023-05-10T02:27:04;11.60;99.90
24436;DHT22;12616;52.470;13.436;2023-05-10T02:29:32;11.50;99.90
24436;DHT22;12616;52.470;13.436;2023-05-10T02:32:01;11.50;99.90
24436;DHT22;12616;52.470;13.436;2023-05-10T02:34:28;11.40;99.90
24436;DHT22;12616;52.470;13.436;2023-05-10T02:36:58;11.40;99.90
24436;DHT22;12616;52.470;13.436;2023-05-10T02:39:28;11.40;99.90
24436;DHT22;12616;52.470;13.436;2023-05-10T02:41:57;11.40;99.90
24436;DHT22;12616;52.470;13.436;2023-05-10T02:44:25;11.40;99.90
24436;DHT22;12616;52.470;13.436;2023-05-10T02:46:53;11.30;99.90
24436;DHT22;12616;52.470;13.436;2023-05-10T02:49:21;11.30;99.90
24436;DHT22;12616;52.470;13.436;2023-05-10T02:51:51;11.30;99.90
24436;DHT22;12616;52.470;13.436;2023-05-10T02:54:24;11.40;99.90
24436;DHT22;12616;52.470;13.436;2023-05-10T02:56:56;11.30;99.90
24436;DHT22;12616;52.470;13.436;2023-05-10T02:59:24;11.40;99.90
24436;DHT22;12616;52.470;13.436;2023-05-10T03:01:51;11.40;99.90
24436;DHT22;12616;52.470;13.436;2023-05-10T03:04:17;11.30;99.90
24436;DHT22;12616;52.470;13.436;2023-05-10T03:06:45;11.20;99.90
24436;DHT22;12616;52.470;13.436;2023-05-10T03:09:12;11.20;99.90
24436;DHT22;12616;52.470;13.436;2023-05-10T03:11:49;11.20;99.90
24436;DHT22;12616;52.470;13.436;2023-05-10T03:14:30;11.20;99.90
24436;DHT22;12616;52.470;13.436;2023-05-10T03:17:06;11.10;99.90
24436;DHT22;12616;52.470;13.436;2023-05-10T03:19:43;11.20;99.90
24436;DHT22;12616;52.470;13.436;2023-05-10T03:22:16;11.10;99.90
24436;DHT22;12616;52.470;13.436;2023-05-10T03:24:49;11.00;99.90
24436;DHT22;12616;52.470;13.436;2023-05-10T03:27:16;11.10;99.90
24436;DHT22;12616;52.470;13.436;2023-05-10T03:29:45;11.00;99.90
24436;DHT22;12616;52.470;13.436;2023-05-10T03:32:13;11.00;99.90
24436;DHT22;12616;52.470;13.436;2023-05-10T03:34:41;11.00;99.90
24436;DHT22;12616;52.470;13.436;2023-05-10T03:37:09;11.00;99.90
24436;DHT22;12616;52.470;13.436;2023-05-10T03:39:35;11.00;99.90
24436;DHT22;12616;52.470;13.436;2023-05-10T03:42:02;11.00;99.90
24436;DHT22;12616;52.470;13.436;2023-05-10T03:44:29;11.00;99.90
24436;DHT22;12616;52.470;13.436;2023-05-10T03:46:58;11.00;99.90
24436;DHT22;12616;52.470;13.436;2023-05-10T03:49:25;11.00;99.90
24436;DHT22;12616;52.470;13.436;2023-05-10T03:51:51;11.00;99.90
24436;DHT22;12616;52.470;13.436;2023-05-10T03:54:18;11.00;99.90
24436;DHT22;12616;52.470;13.436;2023-05-10T03:56:45;11.00;99.90
24436;DHT22;12616;52.470;13.436;2023-05-10T03:59:13;11.00;99.90
24436;DHT22;12616;52.470;13.436;2023-05-10T04:01:40;10.90;99.90
24436;DHT22;12616;52.470;13.436;2023-05-10T04:04:08;10.90;99.90
24436;DHT22;12616;52.470;13.436;2023-05-10T04:06:35;10.90;99.90
24436;DHT22;12616;52.470;13.436;2023-05-10T04:09:02;11.00;99.90
24436;DHT22;12616;52.470;13.436;2023-05-10T04:11:30;11.00;99.90
24436;DHT22;12616;52.470;13.436;2023-05-10T04:13:56;10.90;99.90
24436;DHT22;12616;52.470;13.436;2023-05-10T04:16:23;11.00;99.90
24436;DHT22;12616;52.470;13.436;2023-05-10T04:18:50;11.00;99.90
24436;DHT22;12616;52.470;13.436;2023-05-10T04:21:19;11.00;99.90
24436;DHT22;12616;52.470;13.436;2023-05-10T04:23:45;11.10;99.90
24436;DHT22;12616;52.470;13.436;2023-05-10T04:26:12;11.10;99.90
24436;DHT22;12616;52.470;13.436;2023-05-10T04:28:39;11.10;99.90
24436;DHT22;12616;52.470;13.436;2023-05-10T04:31:07;11.10;99.90
24436;DHT22;12616;52.470;13.436;2023-05-10T04:36:02;11.20;99.90
24436;DHT22;12616;52.470;13.436;2023-05-10T04:38:30;11.20;99.90
24436;DHT22;12616;52.470;13.436;2023-05-10T04:41:04;11.30;99.90
24436;DHT22;12616;52.470;13.436;2023-05-10T04:43:31;11.30;99.90
24436;DHT22;12616;52.470;13.436;2023-05-10T04:45:58;11.30;99.90
24436;DHT22;12616;52.470;13.436;2023-05-10T04:48:25;11.40;99.90
24436;DHT22;12616;52.470;13.436;2023-05-10T04:50:52;11.40;99.90
24436;DHT22;12616;52.470;13.436;2023-05-10T04:53:19;11.40;99.90
24436;DHT22;12616;52.470;13.436;2023-05-10T04:55:47;11.50;99.90
24436;DHT22;12616;52.470;13.436;2023-05-10T04:58:14;11.60;99.90
24436;DHT22;12616;52.470;13.436;2023-05-10T05:00:41;11.60;99.90
24436;DHT22;12616;52.470;13.436;2023-05-10T05:03:08;11.70;99.90
24436;DHT22;12616;52.470;13.436;2023-05-10T05:05:35;11.80;99.90
24436;DHT22;12616;52.470;13.436;2023-05-10T05:08:02;11.80;99.90
24436;DHT22;12616;52.470;13.436;2023-05-10T05:10:29;11.90;99.90
24436;DHT22;12616;52.470;13.436;2023-05-10T05:12:57;12.00;99.90
24436;DHT22;12616;52.470;13.436;2023-05-10T05:15:24;12.00;99.90
24436;DHT22;12616;52.470;13.436;2023-05-10T05:17:51;12.10;99.90
24436;DHT22;12616;52.470;13.436;2023-05-10T05:20:20;12.20;99.90
24436;DHT22;12616;52.470;13.436;2023-05-10T05:22:47;12.70;99.90
24436;DHT22;12616;52.470;13.436;2023-05-10T05:25:14;12.40;99.90
24436;DHT22;12616;52.470;13.436;2023-05-10T05:27:41;12.40;99.90
24436;DHT22;12616;52.470;13.436;2023-05-10T05:30:10;12.50;99.90
24436;DHT22;12616;52.470;13.436;2023-05-10T05:32:38;12.60;99.90
24436;DHT22;12616;52.470;13.436;2023-05-10T05:35:05;12.60;99.90
24436;DHT22;12616;52.470;13.436;2023-05-10T05:37:32;12.80;99.90
24436;DHT22;12616;52.470;13.436;2023-05-10T05:39:59;12.80;99.90
24436;DHT22;12616;52.470;13.436;2023-05-10T05:42:27;12.90;1.00
24436;DHT22;12616;52.470;13.436;2023-05-10T05:44:54;12.90;99.90
24436;DHT22;12616;52.470;13.436;2023-05-10T05:47:22;13.00;99.90
24436;DHT22;12616;52.470;13.436;2023-05-10T05:49:49;13.10;99.90
24436;DHT22;12616;52.470;13.436;2023-05-10T05:52:16;13.20;99.90
24436;DHT22;12616;52.470;13.436;2023-05-10T05:54:43;13.30;99.90
24436;DHT22;12616;52.470;13.436;2023-05-10T05:57:10;13.20;1.00
24436;DHT22;12616;52.470;13.436;2023-05-10T05:59:37;13.30;99.90
24436;DHT22;12616;52.470;13.436;2023-05-10T06:02:07;13.40;99.90
24436;DHT22;12616;52.470;13.436;2023-05-10T06:04:35;13.40;99.90
24436;DHT22;12616;52.470;13.436;2023-05-10T06:07:02;13.40;99.90
24436;DHT22;12616;52.470;13.436;2023-05-10T06:09:29;13.50;99.90
24436;DHT22;12616;52.470;13.436;2023-05-10T06:11:56;13.50;99.90
24436;DHT22;12616;52.470;13.436;2023-05-10T06:14:23;13.50;99.90
24436;DHT22;12616;52.470;13.436;2023-05-10T06:16:50;13.50;99.90
24436;DHT22;12616;52.470;13.436;2023-05-10T06:19:17;13.60;99.90
24436;DHT22;12616;52.470;13.436;2023-05-10T06:21:46;13.70;99.90
24436;DHT22;12616;52.470;13.436;2023-05-10T06:24:13;13.70;99.90
24436;DHT22;12616;52.470;13.436;2023-05-10T06:26:40;13.70;99.90
24436;DHT22;12616;52.470;13.436;2023-05-10T06:29:07;13.80;99.90
24436;DHT22;12616;52.470;13.436;2023-05-10T06:31:34;13.90;99.90
24436;DHT22;12616;52.470;13.436;2023-05-10T06:34:01;13.90;99.90
24436;DHT22;12616;52.470;13.436;2023-05-10T06:36:27;14.00;99.90
24436;DHT22;12616;52.470;13.436;2023-05-10T06:38:56;14.10;99.90
24436;DHT22;12616;52.470;13.436;2023-05-10T06:41:23;14.20;99.90
24436;DHT22;12616;52.470;13.436;2023-05-10T06:43:49;14.20;99.90
24436;DHT22;12616;52.470;13.436;2023-05-10T06:46:16;14.30;99.90
24436;DHT22;12616;52.470;13.436;2023-05-10T06:48:43;14.40;99.90
24436;DHT22;12616;52.470;13.436;2023-05-10T06:51:10;14.30;1.00
24436;DHT22;12616;52.470;13.436;2023-05-10T06:53:37;14.50;99.90
24436;DHT22;12616;52.470;13.436;2023-05-10T06:56:05;14.60;99.90
24436;DHT22;12616;52.470;13.436;2023-05-10T06:58:32;14.70;99.90
24436;DHT22;12616;52.470;13.436;2023-05-10T07:01:02;14.70;99.90
24436;DHT22;12616;52.470;13.436;2023-05-10T07:03:29;14.80;99.90
24436;DHT22;12616;52.470;13.436;2023-05-10T07:06:00;14.90;99.90
24436;DHT22;12616;52.470;13.436;2023-05-10T07:08:28;15.00;99.90
24436;DHT22;12616;52.470;13.436;2023-05-10T07:11:00;15.00;99.90
24436;DHT22;12616;52.470;13.436;2023-05-10T07:13:28;15.10;99.90
24436;DHT22;12616;52.470;13.436;2023-05-10T07:15:57;15.20;99.90
24436;DHT22;12616;52.470;13.436;2023-05-10T07:18:24;15.20;99.90
24436;DHT22;12616;52.470;13.436;2023-05-10T07:20:51;15.30;99.90
24436;DHT22;12616;52.470;13.436;2023-05-10T07:23:18;15.30;99.90
24436;DHT22;12616;52.470;13.436;2023-05-10T07:25:45;15.50;99.90
24436;DHT22;12616;52.470;13.436;2023-05-10T07:28:13;15.60;1.00
24436;DHT22;12616;52.470;13.436;2023-05-10T07:30:42;15.70;99.90
24436;DHT22;12616;52.470;13.436;2023-05-10T07:33:10;15.80;99.90
24436;DHT22;12616;52.470;13.436;2023-05-10T07:35:37;15.90;99.90
24436;DHT22;12616;52.470;13.436;2023-05-10T07:38:04;15.90;99.90
24436;DHT22;12616;52.470;13.436;2023-05-10T07:40:31;16.60;99.90
24436;DHT22;12616;52.470;13.436;2023-05-10T07:43:00;15.70;1.00
24436;DHT22;12616;52.470;13.436;2023-05-10T07:45:27;15.70;99.90
24436;DHT22;12616;52.470;13.436;2023-05-10T07:47:56;15.80;99.90
24436;DHT22;12616;52.470;13.436;2023-05-10T07:50:22;15.80;99.90
24436;DHT22;12616;52.470;13.436;2023-05-10T07:52:49;15.90;1.00
24436;DHT22;12616;52.470;13.436;2023-05-10T07:55:18;16.10;99.90
24436;DHT22;12616;52.470;13.436;2023-05-10T07:57:45;16.10;99.90
24436;DHT22;12616;52.470;13.436;2023-05-10T08:00:13;16.10;99.90
24436;DHT22;12616;52.470;13.436;2023-05-10T08:02:43;16.30;1.00
24436;DHT22;12616;52.470;13.436;2023-05-10T08:05:11;16.30;99.90
24436;DHT22;12616;52.470;13.436;2023-05-10T08:07:38;16.30;99.90
24436;DHT22;12616;52.470;13.436;2023-05-10T08:10:07;16.30;99.90
24436;DHT22;12616;52.470;13.436;2023-05-10T08:12:34;16.40;99.90
24436;DHT22;12616;52.470;13.436;2023-05-10T08:15:00;16.90;1.00
24436;DHT22;12616;52.470;13.436;2023-05-10T08:17:28;17.00;1.00
24436;DHT22;12616;52.470;13.436;2023-05-10T08:19:56;16.60;99.90
24436;DHT22;12616;52.470;13.436;2023-05-10T08:22:24;16.70;99.90
24436;DHT22;12616;52.470;13.436;2023-05-10T08:24:51;16.70;99.90
24436;DHT22;12616;52.470;13.436;2023-05-10T08:27:18;16.70;99.90
24436;DHT22;12616;52.470;13.436;2023-05-10T08:29:45;16.80;99.90
24436;DHT22;12616;52.470;13.436;2023-05-10T08:32:12;16.90;99.90
24436;DHT22;12616;52.470;13.436;2023-05-10T08:34:38;17.30;1.00
24436;DHT22;12616;52.470;13.436;2023-05-10T08:37:05;16.90;99.90
24436;DHT22;12616;52.470;13.436;2023-05-10T08:39:35;17.00;99.90
24436;DHT22;12616;52.470;13.436;2023-05-10T08:42:04;17.10;99.90
24436;DHT22;12616;52.470;13.436;2023-05-10T08:44:32;17.00;99.90
24436;DHT22;12616;52.470;13.436;2023-05-10T08:47:04;17.10;99.90
24436;DHT22;12616;52.470;13.436;2023-05-10T08:49:31;17.20;99.90
24436;DHT22;12616;52.470;13.436;2023-05-10T08:52:01;17.30;99.90
24436;DHT22;12616;52.470;13.436;2023-05-10T08:54:29;17.50;99.90
24436;DHT22;12616;52.470;13.436;2023-05-10T08:56:58;17.50;99.90
24436;DHT22;12616;52.470;13.436;2023-05-10T08:59:25;17.60;99.90
24436;DHT22;12616;52.470;13.436;2023-05-10T09:01:52;17.60;99.90
24436;DHT22;12616;52.470;13.436;2023-05-10T09:04:21;17.80;99.90
24436;DHT22;12616;52.470;13.436;2023-05-10T09:06:49;17.80;99.90
24436;DHT22;12616;52.470;13.436;2023-05-10T09:09:16;17.80;99.90
24436;DHT22;12616;52.470;13.436;2023-05-10T09:11:43;17.80;99.90
24436;DHT22;12616;52.470;13.436;2023-05-10T09:14:12;18.00;99.90
24436;DHT22;12616;52.470;13.436;2023-05-10T09:16:40;18.00;99.90
24436;DHT22;12616;52.470;13.436;2023-05-10T09:19:07;18.00;99.90
24436;DHT22;12616;52.470;13.436;2023-05-10T09:21:35;18.00;99.90
24436;DHT22;12616;52.470;13.436;2023-05-10T09:24:04;18.00;99.90
24436;DHT22;12616;52.470;13.436;2023-05-10T09:26:31;18.20;99.90
24436;DHT22;12616;52.470;13.436;2023-05-10T09:28:59;18.20;99.90
24436;DHT22;12616;52.470;13.436;2023-05-10T09:31:44;18.20;99.90
24436;DHT22;12616;52.470;13.436;2023-05-10T09:34:15;18.40;99.90
24436;DHT22;12616;52.470;13.436;2023-05-10T09:36:53;18.40;99.90
24436;DHT22;12616;52.470;13.436;2023-05-10T09:39:29;18.50;99.90
24436;DHT22;12616;52.470;13.436;2023-05-10T09:41:57;18.50;99.90
24436;DHT22;12616;52.470;13.436;2023-05-10T09:44:25;18.50;99.90
24436;DHT22;12616;52.470;13.436;2023-05-10T09:46:53;18.50;99.90
24436;DHT22;12616;52.470;13.436;2023-05-10T09:49:21;18.60;99.90
24436;DHT22;12616;52.470;13.436;2023-05-10T09:51:54;18.60;99.90
24436;DHT22;12616;52.470;13.436;2023-05-10T09:54:25;18.40;99.90
24436;DHT22;12616;52.470;13.436;2023-05-10T09:56:52;18.50;99.90
24436;DHT22;12616;52.470;13.436;2023-05-10T09:59:19;18.60;99.90
24436;DHT22;12616;52.470;13.436;2023-05-10T10:01:49;18.70;99.90
24436;DHT22;12616;52.470;13.436;2023-05-10T10:04:18;18.90;99.90
24436;DHT22;12616;52.470;13.436;2023-05-10T10:06:46;19.00;99.90
24436;DHT22;12616;52.470;13.436;2023-05-10T10:09:20;19.00;99.90
24436;DHT22;12616;52.470;13.436;2023-05-10T10:11:50;18.90;99.90
24436;DHT22;12616;52.470;13.436;2023-05-10T10:14:18;19.00;99.90
24436;DHT22;12616;52.470;13.436;2023-05-10T10:16:45;19.20;99.90
24436;DHT22;12616;52.470;13.436;2023-05-10T10:19:12;19.30;99.90
24436;DHT22;12616;52.470;13.436;2023-05-10T10:21:40;19.40;99.90
24436;DHT22;12616;52.470;13.436;2023-05-10T10:24:09;19.40;99.90
24436;DHT22;12616;52.470;13.436;2023-05-10T10:26:36;19.40;99.90
24436;DHT22;12616;52.470;13.436;2023-05-10T10:29:16;19.50;99.90
24436;DHT22;12616;52.470;13.436;2023-05-10T10:31:47;19.70;99.90
24436;DHT22;12616;52.470;13.436;2023-05-10T10:34:22;19.60;99.90
24436;DHT22;12616;52.470;13.436;2023-05-10T10:36:54;19.70;99.90
24436;DHT22;12616;52.470;13.436;2023-05-10T10:39:22;19.80;99.90
24436;DHT22;12616;52.470;13.436;2023-05-10T10:41:51;19.90;99.90
24436;DHT22;12616;52.470;13.436;2023-05-10T10:44:26;20.00;99.90
24436;DHT22;12616;52.470;13.436;2023-05-10T10:47:04;19.90;99.90
24436;DHT22;12616;52.470;13.436;2023-05-10T10:49:37;20.00;99.90
24436;DHT22;12616;52.470;13.436;2023-05-10T10:52:23;19.90;99.90
24436;DHT22;12616;52.470;13.436;2023-05-10T10:54:53;20.00;99.90
24436;DHT22;12616;52.470;13.436;2023-05-10T10:57:21;20.00;99.90
24436;DHT22;12616;52.470;13.436;2023-05-10T11:00:26;20.10;99.90
24436;DHT22;12616;52.470;13.436;2023-05-10T11:02:56;20.20;1.00
24436;DHT22;12616;52.470;13.436;2023-05-10T11:05:38;20.30;99.90
24436;DHT22;12616;52.470;13.436;2023-05-10T11:08:18;20.30;99.90
24436;DHT22;12616;52.470;13.436;2023-05-10T11:10:52;20.30;99.90
24436;DHT22;12616;52.470;13.436;2023-05-10T11:13:30;20.30;99.90
24436;DHT22;12616;52.470;13.436;2023-05-10T11:15:58;20.30;99.90
24436;DHT22;12616;52.470;13.436;2023-05-10T11:18:26;20.40;99.90
24436;DHT22;12616;52.470;13.436;2023-05-10T11:20:57;20.50;99.90
24436;DHT22;12616;52.470;13.436;2023-05-10T11:23:32;20.50;99.90
24436;DHT22;12616;52.470;13.436;2023-05-10T11:25:59;20.50;99.90
24436;DHT22;12616;52.470;13.436;2023-05-10T11:28:27;20.60;99.90
24436;DHT22;12616;52.470;13.436;2023-05-10T11:30:54;20.60;99.90
24436;DHT22;12616;52.470;13.436;2023-05-10T11:33:22;20.70;99.90
24436;DHT22;12616;52.470;13.436;2023-05-10T11:35:49;20.60;99.90
24436;DHT22;12616;52.470;13.436;2023-05-10T11:38:15;20.70;99.90
24436;DHT22;12616;52.470;13.436;2023-05-10T11:40:44;20.70;99.90
24436;DHT22;12616;52.470;13.436;2023-05-10T11:43:12;20.80;99.90
24436;DHT22;12616;52.470;13.436;2023-05-10T11:45:41;20.70;99.90
24436;DHT22;12616;52.470;13.436;2023-05-10T11:48:09;20.80;99.90
24436;DHT22;12616;52.470;13.436;2023-05-10T11:50:36;20.70;1.00
24436;DHT22;12616;52.470;13.436;2023-05-10T11:53:03;21.00;99.90
24436;DHT22;12616;52.470;13.436;2023-05-10T11:55:33;21.10;99.90
24436;DHT22;12616;52.470;13.436;2023-05-10T11:58:02;21.10;99.90
24436;DHT22;12616;52.470;13.436;2023-05-10T12:00:29;21.10;99.90
24436;DHT22;12616;52.470;13.436;2023-05-10T12:03:00;21.20;99.90
24436;DHT22;12616;52.470;13.436;2023-05-10T12:05:31;21.20;99.90
24436;DHT22;12616;52.470;13.436;2023-05-10T12:08:11;21.30;99.90
24436;DHT22;12616;52.470;13.436;2023-05-10T12:10:38;21.30;99.90
24436;DHT22;12616;52.470;13.436;2023-05-10T12:13:11;21.30;99.90
24436;DHT22;12616;52.470;13.436;2023-05-10T12:15:38;21.40;99.90
24436;DHT22;12616;52.470;13.436;2023-05-10T12:18:05;21.40;99.90
24436;DHT22;12616;52.470;13.436;2023-05-10T12:20:31;21.40;99.90
24436;DHT22;12616;52.470;13.436;2023-05-10T12:22:58;21.60;1.00
24436;DHT22;12616;52.470;13.436;2023-05-10T12:25:30;21.50;99.90
24436;DHT22;12616;52.470;13.436;2023-05-10T12:27:59;21.50;99.90
24436;DHT22;12616;52.470;13.436;2023-05-10T12:30:30;21.50;99.90
24436;DHT22;12616;52.470;13.436;2023-05-10T12:33:08;21.80;1.00
24436;DHT22;12616;52.470;13.436;2023-05-10T12:35:46;21.60;99.90
24436;DHT22;12616;52.470;13.436;2023-05-10T12:38:29;21.70;99.90
24436;DHT22;12616;52.470;13.436;2023-05-10T12:41:00;21.70;99.90
24436;DHT22;12616;52.470;13.436;2023-05-10T12:43:27;22.20;99.90
24436;DHT22;12616;52.470;13.436;2023-05-10T12:45:56;21.70;99.90
24436;DHT22;12616;52.470;13.436;2023-05-10T12:48:23;21.90;99.90
24436;DHT22;12616;52.470;13.436;2023-05-10T12:50:54;22.00;99.90
24436;DHT22;12616;52.470;13.436;2023-05-10T12:53:21;22.10;99.90
24436;DHT22;12616;52.470;13.436;2023-05-10T12:55:50;22.10;99.90
24436;DHT22;12616;52.470;13.436;2023-05-10T12:58:17;22.10;99.90
24436;DHT22;12616;52.470;13.436;2023-05-10T13:00:47;22.10;99.90
24436;DHT22;12616;52.470;13.436;2023-05-10T13:03:19;22.00;99.90
24436;DHT22;12616;52.470;13.436;2023-05-10T13:05:46;22.00;99.90
24436;DHT22;12616;52.470;13.436;2023-05-10T13:08:13;22.00;99.90
24436;DHT22;12616;52.470;13.436;2023-05-10T13:10:42;21.90;99.90
24436;DHT22;12616;52.470;13.436;2023-05-10T13:13:09;22.00;99.90
24436;DHT22;12616;52.470;13.436;2023-05-10T13:15:36;22.10;99.90
24436;DHT22;12616;52.470;13.436;2023-05-10T13:18:03;22.20;99.90
24436;DHT22;12616;52.470;13.436;2023-05-10T13:20:31;22.70;1.00
24436;DHT22;12616;52.470;13.436;2023-05-10T13:22:59;22.10;1.00
24436;DHT22;12616;52.470;13.436;2023-05-10T13:25:26;22.30;99.90
24436;DHT22;12616;52.470;13.436;2023-05-10T13:27:52;22.10;99.90
24436;DHT22;12616;52.470;13.436;2023-05-10T13:30:19;22.10;99.90
24436;DHT22;12616;52.470;13.436;2023-05-10T13:32:46;22.10;1.00
24436;DHT22;12616;52.470;13.436;2023-05-10T13:35:13;22.20;99.90
24436;DHT22;12616;52.470;13.436;2023-05-10T13:37:42;22.70;1.00
24436;DHT22;12616;52.470;13.436;2023-05-10T13:40:09;22.40;99.90
24436;DHT22;12616;52.470;13.436;2023-05-10T13:42:36;22.40;99.90
24436;DHT22;12616;52.470;13.436;2023-05-10T13:45:05;22.40;99.90
24436;DHT22;12616;52.470;13.436;2023-05-10T13:47:32;22.50;99.90
24436;DHT22;12616;52.470;13.436;2023-05-10T13:49:59;22.50;99.90
24436;DHT22;12616;52.470;13.436;2023-05-10T13:52:26;22.60;99.90
24436;DHT22;12616;52.470;13.436;2023-05-10T13:54:54;22.60;99.90
24436;DHT22;12616;52.470;13.436;2023-05-10T13:57:21;22.70;99.90
24436;DHT22;12616;52.470;13.436;2023-05-10T13:59:49;22.60;99.90
24436;DHT22;12616;52.470;13.436;2023-05-10T14:02:16;22.60;99.90
24436;DHT22;12616;52.470;13.436;2023-05-10T14:04:43;22.70;99.90
24436;DHT22;12616;52.470;13.436;2023-05-10T14:07:09;22.70;99.90
24436;DHT22;12616;52.470;13.436;2023-05-10T14:09:36;22.80;1.00
24436;DHT22;12616;52.470;13.436;2023-05-10T14:12:05;22.70;99.90
24436;DHT22;12616;52.470;13.436;2023-05-10T14:14:31;22.70;99.90
24436;DHT22;12616;52.470;13.436;2023-05-10T14:16:58;22.70;99.90
24436;DHT22;12616;52.470;13.436;2023-05-10T14:19:25;22.80;99.90
24436;DHT22;12616;52.470;13.436;2023-05-10T14:21:53;22.80;99.90
24436;DHT22;12616;52.470;13.436;2023-05-10T14:24:20;22.80;99.90
24436;DHT22;12616;52.470;13.436;2023-05-10T14:26:47;22.70;99.90
24436;DHT22;12616;52.470;13.436;2023-05-10T14:29:15;22.50;99.90
24436;DHT22;12616;52.470;13.436;2023-05-10T14:31:42;22.30;99.90
24436;DHT22;12616;52.470;13.436;2023-05-10T14:34:09;22.40;99.90
24436;DHT22;12616;52.470;13.436;2023-05-10T14:36:36;22.50;99.90
24436;DHT22;12616;52.470;13.436;2023-05-10T14:39:03;22.60;99.90
24436;DHT22;12616;52.470;13.436;2023-05-10T14:41:30;22.70;99.90
24436;DHT22;12616;52.470;13.436;2023-05-10T14:43:57;22.60;99.90
24436;DHT22;12616;52.470;13.436;2023-05-10T14:46:25;22.60;99.90
24436;DHT22;12616;52.470;13.436;2023-05-10T14:48:52;22.30;1.00
24436;DHT22;12616;52.470;13.436;2023-05-10T14:51:19;22.60;99.90
24436;DHT22;12616;52.470;13.436;2023-05-10T14:53:48;22.50;99.90
24436;DHT22;12616;52.470;13.436;2023-05-10T14:56:15;22.40;99.90
24436;DHT22;12616;52.470;13.436;2023-05-10T14:58:42;22.30;99.90
24436;DHT22;12616;52.470;13.436;2023-05-10T15:01:09;22.30;99.90
24436;DHT22;12616;52.470;13.436;2023-05-10T15:03:39;22.40;99.90
24436;DHT22;12616;52.470;13.436;2023-05-10T15:06:08;22.40;99.90
24436;DHT22;12616;52.470;13.436;2023-05-10T15:08:34;22.20;99.90
24436;DHT22;12616;52.470;13.436;2023-05-10T15:11:01;22.00;99.90
24436;DHT22;12616;52.470;13.436;2023-05-10T15:13:28;22.00;99.90
24436;DHT22;12616;52.470;13.436;2023-05-10T15:15:55;22.00;99.90
24436;DHT22;12616;52.470;13.436;2023-05-10T15:18:22;22.10;99.90
24436;DHT22;12616;52.470;13.436;2023-05-10T15:20:50;21.90;99.90
24436;DHT22;12616;52.470;13.436;2023-05-10T15:23:17;21.80;99.90
24436;DHT22;12616;52.470;13.436;2023-05-10T15:25:44;21.70;99.90
24436;DHT22;12616;52.470;13.436;2023-05-10T15:28:11;21.60;99.90
24436;DHT22;12616;52.470;13.436;2023-05-10T15:30:37;21.70;99.90
24436;DHT22;12616;52.470;13.436;2023-05-10T15:33:04;21.70;99.90
24436;DHT22;12616;52.470;13.436;2023-05-10T15:35:31;21.70;99.90